createdAt,value
2018-05-01T00:00:09.103Z,60.35
2018-05-01T00:00:40.313Z,60.26
2018-05-01T00:01:11.541Z,60.71
2018-05-01T00:01:42.809Z,60.98
2018-05-01T00:02:14.053Z,61.02
2018-05-01T00:02:45.261Z,61.02
2018-05-01T00:03:16.524Z,60.79
2018-05-01T00:03:47.721Z,60.63
2018-05-01T00:04:18.924Z,61.11
2018-05-01T00:04:50.152Z,61.25
2018-05-01T00:05:21.370Z,61.14
2018-05-01T00:05:52.577Z,61.42
2018-05-01T00:06:23.780Z,61.68
2018-05-01T00:06:54.986Z,61.80
2018-05-01T00:07:26.243Z,61.85
2018-05-01T00:07:57.448Z,61.95
2018-05-01T00:08:28.637Z,62.13
2018-05-01T00:08:59.851Z,62.26
2018-05-01T00:09:31.070Z,62.34
2018-05-01T00:10:02.327Z,62.42
2018-05-01T00:10:33.541Z,62.39
2018-05-01T00:11:04.732Z,62.34
2018-05-01T00:11:35.940Z,61.87
2018-05-01T00:12:07.151Z,61.95
2018-05-01T00:12:38.392Z,61.83
2018-05-01T00:13:09.593Z,60.37
2018-05-01T00:13:40.793Z,60.05
2018-05-01T00:14:12.008Z,60.20
2018-05-01T00:14:43.218Z,60.61
2018-05-01T00:15:14.420Z,61.07
2018-05-01T00:15:45.630Z,61.55
2018-05-01T00:16:16.840Z,61.32
2018-05-01T00:16:48.053Z,60.96
2018-05-01T00:17:19.252Z,60.96
2018-05-01T00:17:50.564Z,61.69
2018-05-01T00:18:21.839Z,62.40
2018-05-01T00:18:53.052Z,62.81
2018-05-01T00:19:24.274Z,62.73
2018-05-01T00:19:55.492Z,62.20
2018-05-01T00:20:26.696Z,62.12
2018-05-01T00:20:57.936Z,61.77
2018-05-01T00:21:29.211Z,61.66
2018-05-01T00:22:00.418Z,61.39
2018-05-01T00:22:31.629Z,61.22
2018-05-01T00:23:02.886Z,61.40
2018-05-01T00:23:34.093Z,61.42
2018-05-01T00:24:05.310Z,63.30
2018-05-01T00:24:36.533Z,64.03
2018-05-01T00:25:07.772Z,64.46
2018-05-01T00:25:39.028Z,64.54
2018-05-01T00:26:10.251Z,64.70
2018-05-01T00:26:41.477Z,65.08
2018-05-01T00:27:12.787Z,65.70
2018-05-01T00:27:43.980Z,65.84
2018-05-01T00:28:15.189Z,65.48
2018-05-01T00:28:46.440Z,65.47
2018-05-01T00:29:17.623Z,65.47
2018-05-01T00:29:48.886Z,66.07
2018-05-01T00:30:20.093Z,65.93
2018-05-01T00:30:51.356Z,65.12
2018-05-01T00:31:22.560Z,65.93
2018-05-01T00:31:53.759Z,66.44
2018-05-01T00:32:24.977Z,66.56
2018-05-01T00:32:56.185Z,67.15
2018-05-01T00:33:27.404Z,67.62
2018-05-01T00:33:58.618Z,68.12
2018-05-01T00:34:29.869Z,68.54
2018-05-01T00:35:01.085Z,68.91
2018-05-01T00:35:32.302Z,69.17
2018-05-01T00:36:03.497Z,69.48
2018-05-01T00:36:34.762Z,69.44
2018-05-01T00:37:06.012Z,69.66
2018-05-01T00:37:37.265Z,69.63
2018-05-01T00:38:08.478Z,69.10
2018-05-01T00:38:39.702Z,68.75
2018-05-01T00:39:10.913Z,68.12
2018-05-01T00:39:42.131Z,67.21
2018-05-01T00:40:13.353Z,66.88
2018-05-01T00:40:44.573Z,67.92
2018-05-01T00:41:15.789Z,68.46
2018-05-01T00:41:47.005Z,68.18
2018-05-01T00:42:18.216Z,67.89
2018-05-01T00:42:49.475Z,67.54
2018-05-01T00:43:20.711Z,67.28
2018-05-01T00:43:51.924Z,66.88
2018-05-01T00:44:23.169Z,66.65
2018-05-01T00:44:54.377Z,66.89
2018-05-01T00:45:25.580Z,67.02
2018-05-01T00:45:56.796Z,67.10
2018-05-01T00:46:28.007Z,66.64
2018-05-01T00:46:59.229Z,66.75
2018-05-01T00:47:30.452Z,66.74
2018-05-01T00:48:01.669Z,67.07
2018-05-01T00:48:32.873Z,66.88
2018-05-01T00:49:04.124Z,66.99
2018-05-01T00:49:35.393Z,66.53
2018-05-01T00:50:06.600Z,66.35
2018-05-01T00:50:37.825Z,66.25
2018-05-01T00:51:09.039Z,66.14
2018-05-01T00:51:40.868Z,66.52
2018-05-01T00:52:12.085Z,66.40
2018-05-01T00:52:43.330Z,65.96
2018-05-01T00:53:14.557Z,65.94
2018-05-01T00:53:45.765Z,65.93
2018-05-01T00:54:17.017Z,66.09
2018-05-01T00:54:48.232Z,66.19
2018-05-01T00:55:19.481Z,66.26
2018-05-01T00:55:50.704Z,66.17
2018-05-01T00:56:21.921Z,66.62
2018-05-01T00:56:53.135Z,66.36
2018-05-01T00:57:24.345Z,66.32
2018-05-01T00:57:55.568Z,66.36
2018-05-01T00:58:26.777Z,66.39
2018-05-01T00:58:57.985Z,66.51
2018-05-01T00:59:29.234Z,66.75
2018-05-01T01:00:00.449Z,66.82
2018-05-01T01:00:31.660Z,67.22
2018-05-01T01:01:02.898Z,67.36
2018-05-01T01:01:34.094Z,67.63
2018-05-01T01:02:05.301Z,68.00
2018-05-01T01:02:36.587Z,68.22
2018-05-01T01:03:07.792Z,68.44
2018-05-01T01:03:39.103Z,68.81
2018-05-01T01:04:10.286Z,68.87
2018-05-01T01:04:41.532Z,68.54
2018-05-01T01:05:12.776Z,68.42
2018-05-01T01:05:44.031Z,68.45
2018-05-01T01:06:15.249Z,68.51
2018-05-01T01:06:46.461Z,68.54
2018-05-01T01:07:17.672Z,68.51
2018-05-01T01:07:48.938Z,68.74
2018-05-01T01:08:20.144Z,69.24
2018-05-01T01:08:51.327Z,69.47
2018-05-01T01:09:22.533Z,69.58
2018-05-01T01:09:53.751Z,69.63
2018-05-01T01:10:24.965Z,69.73
2018-05-01T01:10:56.177Z,69.78
2018-05-01T01:11:27.425Z,69.71
2018-05-01T01:11:58.624Z,69.71
2018-05-01T01:12:29.853Z,69.89
2018-05-01T01:13:01.044Z,69.88
2018-05-01T01:13:32.286Z,70.08
2018-05-01T01:14:03.493Z,70.18
2018-05-01T01:14:34.712Z,70.31
2018-05-01T01:15:05.917Z,70.36
2018-05-01T01:15:37.120Z,70.59
2018-05-01T01:16:08.338Z,71.07
2018-05-01T01:16:39.595Z,71.61
2018-05-01T01:17:10.823Z,72.21
2018-05-01T01:17:42.042Z,72.58
2018-05-01T01:18:13.249Z,72.91
2018-05-01T01:18:44.453Z,73.18
2018-05-01T01:19:15.662Z,73.60
2018-05-01T01:19:46.995Z,73.89
2018-05-01T01:20:18.197Z,74.18
2018-05-01T01:20:49.431Z,74.76
2018-05-01T01:21:20.667Z,75.07
2018-05-01T01:21:51.926Z,75.03
2018-05-01T01:22:23.140Z,74.38
2018-05-01T01:22:54.352Z,74.19
2018-05-01T01:23:25.558Z,73.94
2018-05-01T01:23:56.769Z,74.06
2018-05-01T01:24:27.977Z,74.18
2018-05-01T01:24:59.193Z,74.16
2018-05-01T01:25:30.479Z,74.17
2018-05-01T01:26:01.690Z,74.16
2018-05-01T01:26:32.915Z,74.29
2018-05-01T01:27:04.137Z,74.40
2018-05-01T01:27:35.358Z,74.71
2018-05-01T01:28:06.547Z,74.81
2018-05-01T01:28:37.757Z,74.83
2018-05-01T01:29:08.984Z,74.78
2018-05-01T01:29:40.205Z,74.78
2018-05-01T01:30:11.417Z,74.82
2018-05-01T01:30:42.679Z,74.83
2018-05-01T01:31:13.889Z,74.86
2018-05-01T01:31:45.093Z,74.60
2018-05-01T01:32:16.309Z,74.49
2018-05-01T01:32:47.527Z,74.54
2018-05-01T01:33:18.752Z,74.53
2018-05-01T01:33:49.996Z,74.58
2018-05-01T01:34:21.200Z,74.78
2018-05-01T01:34:52.408Z,74.87
2018-05-01T01:35:23.817Z,75.00
2018-05-01T01:35:55.021Z,75.29
2018-05-01T01:36:26.253Z,75.78
2018-05-01T01:36:57.469Z,76.18
2018-05-01T01:37:28.682Z,76.54
2018-05-01T01:37:59.893Z,76.79
2018-05-01T01:38:31.100Z,76.62
2018-05-01T01:39:02.330Z,76.62
2018-05-01T01:39:33.548Z,76.75
2018-05-01T01:40:04.768Z,76.80
2018-05-01T01:40:35.992Z,76.91
2018-05-01T01:41:07.218Z,76.86
2018-05-01T01:41:38.440Z,77.50
2018-05-01T01:42:09.654Z,77.21
2018-05-01T01:42:40.858Z,76.98
2018-05-01T01:43:12.066Z,76.98
2018-05-01T01:43:43.343Z,76.83
2018-05-01T01:44:14.553Z,76.56
2018-05-01T01:44:45.763Z,76.32
2018-05-01T01:45:16.977Z,76.61
2018-05-01T01:45:48.231Z,76.32
2018-05-01T01:46:19.457Z,76.07
2018-05-01T01:46:50.688Z,76.21
2018-05-01T01:47:21.921Z,76.23
2018-05-01T01:47:53.143Z,76.11
2018-05-01T01:48:24.393Z,76.00
2018-05-01T01:48:55.641Z,75.75
2018-05-01T01:49:26.858Z,75.94
2018-05-01T01:49:58.073Z,75.95
2018-05-01T01:50:29.282Z,75.80
2018-05-01T01:51:00.484Z,75.51
2018-05-01T01:51:31.703Z,75.51
2018-05-01T01:52:02.914Z,75.52
2018-05-01T01:52:34.134Z,75.59
2018-05-01T01:53:05.349Z,75.41
2018-05-01T01:53:36.558Z,75.26
2018-05-01T01:54:07.775Z,75.41
2018-05-01T01:54:39.053Z,75.24
2018-05-01T01:55:10.269Z,75.52
2018-05-01T01:55:41.512Z,75.63
2018-05-01T01:56:12.742Z,75.77
2018-05-01T01:56:43.949Z,75.78
2018-05-01T01:57:15.173Z,76.26
2018-05-01T01:57:46.427Z,75.98
2018-05-01T01:58:17.636Z,75.84
2018-05-01T01:58:48.870Z,75.88
2018-05-01T01:59:20.090Z,76.21
2018-05-01T01:59:51.352Z,76.27
2018-05-01T02:00:22.995Z,76.15
2018-05-01T02:00:54.204Z,75.95
2018-05-01T02:01:25.416Z,75.80
2018-05-01T02:01:56.625Z,75.75
2018-05-01T02:02:27.845Z,75.62
2018-05-01T02:02:59.054Z,75.67
2018-05-01T02:03:30.292Z,75.97
2018-05-01T02:04:01.499Z,75.84
2018-05-01T02:04:32.701Z,75.78
2018-05-01T02:05:03.919Z,75.86
2018-05-01T02:05:35.130Z,76.10
2018-05-01T02:06:06.346Z,76.10
2018-05-01T02:06:37.567Z,76.13
2018-05-01T02:07:08.799Z,76.05
2018-05-01T02:07:40.017Z,76.13
2018-05-01T02:08:11.222Z,76.20
2018-05-01T02:08:42.466Z,76.29
2018-05-01T02:09:13.692Z,76.30
2018-05-01T02:09:44.925Z,76.43
2018-05-01T02:10:16.232Z,76.26
2018-05-01T02:10:47.444Z,76.37
2018-05-01T02:11:18.658Z,76.38
2018-05-01T02:11:49.891Z,76.21
2018-05-01T02:12:21.113Z,76.37
2018-05-01T02:12:52.331Z,76.41
2018-05-01T02:13:23.543Z,76.25
2018-05-01T02:13:54.795Z,76.34
2018-05-01T02:14:26.040Z,76.54
2018-05-01T02:14:57.267Z,76.63
2018-05-01T02:15:28.477Z,76.75
2018-05-01T02:15:59.689Z,76.85
2018-05-01T02:16:30.918Z,77.01
2018-05-01T02:17:02.136Z,77.15
2018-05-01T02:17:33.363Z,77.66
2018-05-01T02:18:04.560Z,77.81
2018-05-01T02:18:35.781Z,78.12
2018-05-01T02:19:07.001Z,78.27
2018-05-01T02:19:38.273Z,78.44
2018-05-01T02:20:09.484Z,78.39
2018-05-01T02:20:40.728Z,78.42
2018-05-01T02:21:11.938Z,78.40
2018-05-01T02:21:43.155Z,78.43
2018-05-01T02:22:14.350Z,78.33
2018-05-01T02:22:45.561Z,78.40
2018-05-01T02:23:16.785Z,78.54
2018-05-01T02:23:48.001Z,78.56
2018-05-01T02:24:19.205Z,78.68
2018-05-01T02:24:50.413Z,78.72
2018-05-01T02:25:21.669Z,78.73
2018-05-01T02:25:52.883Z,78.86
2018-05-01T02:26:24.094Z,79.07
2018-05-01T02:26:55.302Z,79.22
2018-05-01T02:27:26.517Z,79.40
2018-05-01T02:27:57.724Z,79.49
2018-05-01T02:28:28.933Z,79.44
2018-05-01T02:29:00.127Z,79.41
2018-05-01T02:29:31.337Z,79.40
2018-05-01T02:30:02.546Z,79.26
2018-05-01T02:30:33.745Z,79.30
2018-05-01T02:31:04.965Z,79.46
2018-05-01T02:31:36.174Z,79.61
2018-05-01T02:32:07.380Z,79.67
2018-05-01T02:32:38.570Z,79.81
2018-05-01T02:33:09.773Z,80.10
2018-05-01T02:33:40.998Z,80.38
2018-05-01T02:34:12.230Z,80.45
2018-05-01T02:34:43.452Z,80.49
2018-05-01T02:35:14.669Z,80.53
2018-05-01T02:35:45.914Z,80.60
2018-05-01T02:36:17.139Z,80.84
2018-05-01T02:36:48.354Z,80.88
2018-05-01T02:37:19.611Z,80.98
2018-05-01T02:37:50.840Z,80.93
2018-05-01T02:38:22.053Z,80.95
2018-05-01T02:38:53.275Z,80.99
2018-05-01T02:39:24.487Z,80.98
2018-05-01T02:39:55.706Z,81.03
2018-05-01T02:40:26.967Z,81.11
2018-05-01T02:40:58.182Z,81.05
2018-05-01T02:41:29.436Z,81.22
2018-05-01T02:42:00.674Z,81.25
2018-05-01T02:42:31.898Z,81.41
2018-05-01T02:43:03.190Z,81.63
2018-05-01T02:43:34.400Z,81.76
2018-05-01T02:44:05.620Z,81.87
2018-05-01T02:44:36.830Z,81.97
2018-05-01T02:45:08.022Z,81.97
2018-05-01T02:45:39.282Z,82.05
2018-05-01T02:46:10.563Z,81.99
2018-05-01T02:46:41.811Z,82.03
2018-05-01T02:47:13.044Z,81.97
2018-05-01T02:47:44.268Z,81.93
2018-05-01T02:48:15.489Z,81.91
2018-05-01T02:48:46.688Z,81.88
2018-05-01T02:49:17.907Z,81.87
2018-05-01T02:49:49.124Z,81.93
2018-05-01T02:50:20.337Z,81.95
2018-05-01T02:50:51.561Z,81.91
2018-05-01T02:51:22.777Z,81.98
2018-05-01T02:51:54.039Z,81.98
2018-05-01T02:52:25.260Z,81.93
2018-05-01T02:52:56.523Z,81.94
2018-05-01T02:53:27.725Z,81.92
2018-05-01T02:53:58.949Z,81.91
2018-05-01T02:54:30.205Z,81.95
2018-05-01T02:55:01.435Z,81.90
2018-05-01T02:55:32.642Z,81.84
2018-05-01T02:56:03.829Z,81.92
2018-05-01T02:56:35.057Z,81.87
2018-05-01T02:57:06.277Z,81.78
2018-05-01T02:57:37.489Z,81.73
2018-05-01T02:58:08.733Z,81.75
2018-05-01T02:58:39.957Z,81.67
2018-05-01T02:59:11.164Z,81.67
2018-05-01T02:59:42.384Z,81.65
2018-05-01T03:00:13.590Z,81.56
2018-05-01T03:00:44.809Z,81.51
2018-05-01T03:01:16.021Z,81.50
2018-05-01T03:01:47.225Z,81.54
2018-05-01T03:02:18.481Z,81.62
2018-05-01T03:02:49.755Z,81.73
2018-05-01T03:03:20.969Z,81.96
2018-05-01T03:03:52.181Z,82.08
2018-05-01T03:04:23.380Z,82.22
2018-05-01T03:04:54.591Z,82.31
2018-05-01T03:05:25.822Z,82.39
2018-05-01T03:05:57.081Z,82.51
2018-05-01T03:06:28.293Z,82.63
2018-05-01T03:06:59.498Z,82.68
2018-05-01T03:07:30.707Z,82.68
2018-05-01T03:08:01.966Z,82.59
2018-05-01T03:08:33.193Z,82.60
2018-05-01T03:09:04.408Z,82.70
2018-05-01T03:09:35.634Z,82.75
2018-05-01T03:10:06.849Z,82.92
2018-05-01T03:10:38.077Z,83.07
2018-05-01T03:11:09.302Z,83.01
2018-05-01T03:11:40.508Z,82.94
2018-05-01T03:12:11.723Z,82.85
2018-05-01T03:12:42.929Z,82.85
2018-05-01T03:13:14.180Z,82.82
2018-05-01T03:13:45.385Z,82.77
2018-05-01T03:14:16.598Z,82.71
2018-05-01T03:14:47.802Z,82.73
2018-05-01T03:15:19.012Z,82.73
2018-05-01T03:15:50.217Z,82.63
2018-05-01T03:16:21.441Z,82.56
2018-05-01T03:16:52.674Z,82.48
2018-05-01T03:17:23.894Z,82.36
2018-05-01T03:17:55.110Z,82.22
2018-05-01T03:18:26.384Z,82.09
2018-05-01T03:18:57.607Z,82.05
2018-05-01T03:19:28.828Z,82.00
2018-05-01T03:20:00.097Z,81.94
2018-05-01T03:20:31.315Z,81.86
2018-05-01T03:21:02.577Z,81.86
2018-05-01T03:21:33.805Z,81.88
2018-05-01T03:22:05.022Z,81.90
2018-05-01T03:22:36.242Z,81.99
2018-05-01T03:23:07.459Z,82.05
2018-05-01T03:23:38.697Z,82.02
2018-05-01T03:24:09.916Z,81.91
2018-05-01T03:24:41.125Z,81.85
2018-05-01T03:25:12.353Z,81.93
2018-05-01T03:25:43.619Z,81.95
2018-05-01T03:26:14.846Z,82.06
2018-05-01T03:26:46.065Z,81.88
2018-05-01T03:27:17.277Z,81.68
2018-05-01T03:27:48.488Z,81.60
2018-05-01T03:28:19.686Z,81.41
2018-05-01T03:28:50.905Z,81.22
2018-05-01T03:29:22.120Z,80.96
2018-05-01T03:29:53.333Z,80.89
2018-05-01T03:30:24.549Z,80.84
2018-05-01T03:30:55.810Z,80.59
2018-05-01T03:31:27.018Z,80.30
2018-05-01T03:31:58.236Z,80.16
2018-05-01T03:32:29.508Z,80.02
2018-05-01T03:33:00.729Z,79.90
2018-05-01T03:33:31.997Z,80.06
2018-05-01T03:34:03.218Z,79.77
2018-05-01T03:34:34.429Z,79.64
2018-05-01T03:35:05.640Z,79.60
2018-05-01T03:35:36.840Z,79.44
2018-05-01T03:36:08.177Z,79.26
2018-05-01T03:36:39.417Z,79.03
2018-05-01T03:37:10.625Z,78.77
2018-05-01T03:37:41.833Z,78.78
2018-05-01T03:38:13.054Z,78.47
2018-05-01T03:38:44.265Z,78.26
2018-05-01T03:39:15.483Z,78.13
2018-05-01T03:39:46.709Z,78.07
2018-05-01T03:40:17.917Z,78.17
2018-05-01T03:40:49.106Z,78.07
2018-05-01T03:41:20.357Z,77.65
2018-05-01T03:41:51.564Z,77.44
2018-05-01T03:42:22.769Z,77.19
2018-05-01T03:42:53.978Z,76.99
2018-05-01T03:43:25.183Z,76.79
2018-05-01T03:43:56.440Z,76.59
2018-05-01T03:44:27.646Z,76.48
2018-05-01T03:44:58.833Z,76.51
2018-05-01T03:45:30.042Z,76.58
2018-05-01T03:46:01.285Z,76.24
2018-05-01T03:46:32.493Z,76.12
2018-05-01T03:47:03.756Z,76.02
2018-05-01T03:47:34.969Z,75.80
2018-05-01T03:48:06.187Z,75.59
2018-05-01T03:48:37.456Z,75.30
2018-05-01T03:49:08.768Z,75.58
2018-05-01T03:49:39.985Z,75.53
2018-05-01T03:50:11.192Z,74.97
2018-05-01T03:50:42.410Z,74.32
2018-05-01T03:51:13.614Z,73.94
2018-05-01T03:51:44.820Z,73.68
2018-05-01T03:52:16.029Z,73.02
2018-05-01T03:52:47.264Z,72.98
2018-05-01T03:53:18.477Z,72.67
2018-05-01T03:53:49.748Z,72.45
2018-05-01T03:54:21.005Z,72.27
2018-05-01T03:54:52.223Z,71.71
2018-05-01T03:55:23.436Z,71.35
2018-05-01T03:55:54.700Z,70.96
2018-05-01T03:56:25.889Z,70.65
2018-05-01T03:56:57.105Z,70.55
2018-05-01T03:57:28.309Z,70.56
2018-05-01T03:57:59.525Z,70.58
2018-05-01T03:58:30.733Z,70.16
2018-05-01T03:59:01.947Z,69.92
2018-05-01T03:59:33.208Z,69.34
2018-05-01T04:00:04.415Z,69.28
2018-05-01T04:00:35.620Z,69.18
2018-05-01T04:01:06.829Z,69.19
2018-05-01T04:01:38.033Z,68.99
2018-05-01T04:02:09.292Z,68.72
2018-05-01T04:02:40.522Z,68.65
2018-05-01T04:03:11.732Z,68.62
2018-05-01T04:03:42.938Z,68.62
2018-05-01T04:04:14.147Z,68.57
2018-05-01T04:04:45.354Z,68.52
2018-05-01T04:05:16.585Z,68.14
2018-05-01T04:05:47.810Z,68.03
2018-05-01T04:06:19.002Z,67.78
2018-05-01T04:06:50.223Z,67.64
2018-05-01T04:07:21.479Z,67.42
2018-05-01T04:07:52.686Z,67.29
2018-05-01T04:08:23.920Z,66.98
2018-05-01T04:08:55.153Z,66.79
2018-05-01T04:09:26.356Z,66.42
2018-05-01T04:09:57.562Z,66.00
2018-05-01T04:10:28.781Z,65.64
2018-05-01T04:10:59.994Z,65.35
2018-05-01T04:11:31.244Z,64.94
2018-05-01T04:12:02.451Z,64.69
2018-05-01T04:12:33.661Z,64.39
2018-05-01T04:13:04.880Z,64.43
2018-05-01T04:13:36.089Z,64.30
2018-05-01T04:14:07.303Z,64.04
2018-05-01T04:14:38.520Z,63.76
2018-05-01T04:15:09.725Z,63.75
2018-05-01T04:15:40.977Z,63.64
2018-05-01T04:16:12.202Z,63.53
2018-05-01T04:16:43.465Z,63.47
2018-05-01T04:17:14.653Z,63.20
2018-05-01T04:17:45.860Z,63.02
2018-05-01T04:18:17.140Z,62.90
2018-05-01T04:18:48.374Z,62.58
2018-05-01T04:19:19.585Z,62.48
2018-05-01T04:19:50.789Z,62.07
2018-05-01T04:20:21.997Z,61.71
2018-05-01T04:20:53.208Z,61.28
2018-05-01T04:21:24.418Z,60.97
2018-05-01T04:21:55.667Z,60.68
2018-05-01T04:22:26.921Z,60.19
2018-05-01T04:22:58.137Z,59.56
2018-05-01T04:23:29.347Z,59.31
2018-05-01T04:24:00.564Z,58.72
2018-05-01T04:24:31.778Z,58.19
2018-05-01T04:25:02.980Z,57.68
2018-05-01T04:25:34.193Z,57.25
2018-05-01T04:26:05.415Z,56.85
2018-05-01T04:26:36.643Z,56.28
2018-05-01T04:27:07.893Z,55.90
2018-05-01T04:27:39.082Z,55.90
2018-05-01T04:28:10.285Z,55.80
2018-05-01T04:28:41.497Z,55.48
2018-05-01T04:29:12.700Z,55.27
2018-05-01T04:29:43.904Z,55.27
2018-05-01T04:30:15.173Z,55.31
2018-05-01T04:30:46.361Z,55.22
2018-05-01T04:31:17.597Z,54.85
2018-05-01T04:31:48.810Z,54.29
2018-05-01T04:32:20.016Z,53.77
2018-05-01T04:32:51.275Z,53.26
2018-05-01T04:33:22.482Z,53.15
2018-05-01T04:33:53.693Z,52.84
2018-05-01T04:34:24.884Z,52.63
2018-05-01T04:34:56.073Z,52.34
2018-05-01T04:35:27.281Z,52.15
2018-05-01T04:35:58.485Z,52.09
2018-05-01T04:36:29.713Z,51.70
2018-05-01T04:37:00.920Z,51.38
2018-05-01T04:37:32.123Z,51.55
2018-05-01T04:38:03.368Z,51.14
2018-05-01T04:38:34.613Z,50.72
2018-05-01T04:39:05.861Z,50.26
2018-05-01T04:39:37.088Z,49.97
2018-05-01T04:40:08.297Z,49.83
2018-05-01T04:40:39.506Z,49.65
2018-05-01T04:41:10.713Z,49.42
2018-05-01T04:41:41.939Z,49.14
2018-05-01T04:42:13.152Z,49.11
2018-05-01T04:42:44.374Z,49.03
2018-05-01T04:43:15.591Z,49.01
2018-05-01T04:43:46.805Z,48.98
2018-05-01T04:44:18.055Z,48.83
2018-05-01T04:44:49.268Z,48.72
2018-05-01T04:45:20.488Z,48.66
2018-05-01T04:45:51.700Z,48.85
2018-05-01T04:46:22.915Z,48.92
2018-05-01T04:46:54.110Z,48.90
2018-05-01T04:47:25.325Z,48.67
2018-05-01T04:47:56.541Z,48.63
2018-05-01T04:48:27.753Z,48.32
2018-05-01T04:48:58.995Z,47.99
2018-05-01T04:49:30.207Z,47.58
2018-05-01T04:50:01.431Z,47.13
2018-05-01T04:50:32.645Z,47.14
2018-05-01T04:51:03.866Z,46.99
2018-05-01T04:51:35.080Z,46.60
2018-05-01T04:52:06.297Z,46.41
2018-05-01T04:52:37.510Z,46.30
2018-05-01T04:53:08.730Z,46.02
2018-05-01T04:53:39.985Z,46.53
2018-05-01T04:54:11.188Z,47.18
2018-05-01T04:54:42.420Z,47.39
2018-05-01T04:55:13.630Z,47.12
2018-05-01T04:55:44.842Z,46.64
2018-05-01T04:56:16.089Z,46.09
2018-05-01T04:56:47.286Z,45.69
2018-05-01T04:57:18.507Z,45.46
2018-05-01T04:57:49.732Z,45.05
2018-05-01T04:58:20.958Z,45.26
2018-05-01T04:58:52.149Z,45.42
2018-05-01T04:59:23.355Z,45.64
2018-05-01T04:59:54.567Z,45.40
2018-05-01T05:00:25.787Z,45.54
2018-05-01T05:00:57.008Z,45.49
2018-05-01T05:01:28.261Z,45.37
2018-05-01T05:01:59.475Z,45.13
2018-05-01T05:02:30.685Z,44.77
2018-05-01T05:03:01.912Z,44.73
2018-05-01T05:03:33.129Z,44.41
2018-05-01T05:04:04.337Z,44.46
2018-05-01T05:04:35.553Z,44.69
2018-05-01T05:05:06.770Z,44.31
2018-05-01T05:05:37.993Z,44.20
2018-05-01T05:06:09.264Z,44.56
2018-05-01T05:06:40.476Z,44.35
2018-05-01T05:07:11.684Z,44.09
2018-05-01T05:07:42.902Z,44.57
2018-05-01T05:08:14.117Z,45.04
2018-05-01T05:08:45.328Z,45.25
2018-05-01T05:09:16.544Z,45.30
2018-05-01T05:09:47.765Z,45.11
2018-05-01T05:10:18.981Z,44.74
2018-05-01T05:10:50.233Z,44.26
2018-05-01T05:11:21.441Z,43.80
2018-05-01T05:11:52.666Z,43.72
2018-05-01T05:12:23.926Z,43.59
2018-05-01T05:12:55.150Z,43.41
2018-05-01T05:13:26.345Z,43.33
2018-05-01T05:13:57.552Z,43.22
2018-05-01T05:14:28.775Z,43.04
2018-05-01T05:14:59.993Z,43.04
2018-05-01T05:15:31.205Z,42.74
2018-05-01T05:16:02.418Z,42.69
2018-05-01T05:16:33.668Z,42.56
2018-05-01T05:17:04.895Z,42.83
2018-05-01T05:17:36.120Z,42.72
2018-05-01T05:18:07.337Z,42.32
2018-05-01T05:18:38.576Z,42.40
2018-05-01T05:19:09.794Z,42.34
2018-05-01T05:19:40.999Z,42.51
2018-05-01T05:20:12.210Z,42.33
2018-05-01T05:20:43.425Z,42.15
2018-05-01T05:21:14.656Z,42.50
2018-05-01T05:21:45.923Z,42.19
2018-05-01T05:22:17.115Z,42.23
2018-05-01T05:22:48.321Z,42.54
2018-05-01T05:23:19.573Z,43.13
2018-05-01T05:23:50.785Z,42.96
2018-05-01T05:24:22.000Z,43.00
2018-05-01T05:24:53.228Z,43.06
2018-05-01T05:25:24.489Z,43.63
2018-05-01T05:25:55.697Z,43.63
2018-05-01T05:26:26.902Z,43.53
2018-05-01T05:26:58.130Z,43.45
2018-05-01T05:27:29.350Z,43.27
2018-05-01T05:28:00.596Z,43.08
2018-05-01T05:28:31.820Z,42.72
2018-05-01T05:29:03.033Z,42.40
2018-05-01T05:29:34.237Z,42.19
2018-05-01T05:30:05.454Z,42.08
2018-05-01T05:30:36.656Z,42.30
2018-05-01T05:31:07.868Z,42.44
2018-05-01T05:31:39.099Z,42.58
2018-05-01T05:32:10.315Z,42.72
2018-05-01T05:32:41.548Z,42.74
2018-05-01T05:33:12.850Z,42.74
2018-05-01T05:33:44.095Z,42.87
2018-05-01T05:34:15.334Z,42.80
2018-05-01T05:34:46.571Z,42.70
2018-05-01T05:35:17.849Z,42.64
2018-05-01T05:35:49.052Z,42.81
2018-05-01T05:36:20.356Z,43.14
2018-05-01T05:36:51.521Z,43.38
2018-05-01T05:37:22.737Z,43.29
2018-05-01T05:37:53.966Z,43.70
2018-05-01T05:38:25.218Z,44.01
2018-05-01T05:38:56.426Z,44.47
2018-05-01T05:39:27.691Z,44.97
2018-05-01T05:39:58.893Z,45.27
2018-05-01T05:40:30.122Z,45.02
2018-05-01T05:41:01.480Z,45.09
2018-05-01T05:41:32.818Z,45.42
2018-05-01T05:42:04.051Z,45.70
2018-05-01T05:42:35.304Z,46.05
2018-05-01T05:43:06.525Z,46.17
2018-05-01T05:43:37.745Z,45.87
2018-05-01T05:44:08.959Z,46.19
2018-05-01T05:44:40.182Z,46.37
2018-05-01T05:45:11.395Z,46.57
2018-05-01T05:45:42.613Z,46.66
2018-05-01T05:46:13.866Z,46.75
2018-05-01T05:46:45.092Z,46.72
2018-05-01T05:47:16.301Z,46.74
2018-05-01T05:47:47.989Z,46.76
2018-05-01T05:48:19.198Z,46.55
2018-05-01T05:48:50.421Z,46.73
2018-05-01T05:49:21.691Z,46.86
2018-05-01T05:49:52.901Z,46.96
2018-05-01T05:50:24.123Z,47.00
2018-05-01T05:50:55.377Z,47.10
2018-05-01T05:51:26.609Z,47.01
2018-05-01T05:51:57.849Z,47.00
2018-05-01T05:52:29.115Z,47.01
2018-05-01T05:53:00.417Z,47.00
2018-05-01T05:53:31.629Z,46.99
2018-05-01T05:54:02.838Z,47.22
2018-05-01T05:54:34.070Z,47.47
2018-05-01T05:55:05.284Z,47.61
2018-05-01T05:55:36.534Z,47.38
2018-05-01T05:56:07.742Z,47.14
2018-05-01T05:56:39.013Z,46.83
2018-05-01T05:57:10.202Z,46.80
2018-05-01T05:57:41.487Z,46.69
2018-05-01T05:58:13.410Z,46.62
2018-05-01T05:58:44.621Z,46.58
2018-05-01T05:59:15.825Z,46.53
2018-05-01T05:59:47.032Z,46.59
2018-05-01T06:00:18.301Z,46.85
2018-05-01T06:00:49.518Z,47.05
2018-05-01T06:01:20.781Z,47.23
2018-05-01T06:01:52.020Z,47.47
2018-05-01T06:02:23.236Z,47.26
2018-05-01T06:02:54.465Z,47.27
2018-05-01T06:03:25.674Z,47.42
2018-05-01T06:03:56.877Z,47.50
2018-05-01T06:04:28.103Z,47.60
2018-05-01T06:04:59.315Z,47.33
2018-05-01T06:05:30.531Z,47.18
2018-05-01T06:06:01.838Z,47.06
2018-05-01T06:06:33.050Z,47.09
2018-05-01T06:07:04.302Z,47.13
2018-05-01T06:07:35.514Z,47.15
2018-05-01T06:08:06.719Z,47.00
2018-05-01T06:08:37.985Z,46.66
2018-05-01T06:09:09.219Z,46.66
2018-05-01T06:09:40.429Z,46.96
2018-05-01T06:10:11.867Z,47.39
2018-05-01T06:10:43.089Z,47.81
2018-05-01T06:11:14.324Z,47.98
2018-05-01T06:11:45.656Z,48.10
2018-05-01T06:12:16.947Z,48.04
2018-05-01T06:12:48.152Z,48.09
2018-05-01T06:13:19.361Z,48.31
2018-05-01T06:13:50.632Z,48.58
2018-05-01T06:14:22.607Z,48.46
2018-05-01T06:14:53.998Z,48.16
2018-05-01T06:15:25.219Z,47.90
2018-05-01T06:15:56.424Z,47.48
2018-05-01T06:16:27.679Z,47.18
2018-05-01T06:16:58.911Z,47.07
2018-05-01T06:17:30.122Z,47.64
2018-05-01T06:18:01.337Z,47.75
2018-05-01T06:18:32.558Z,47.77
2018-05-01T06:19:03.764Z,47.91
2018-05-01T06:19:34.998Z,48.13
2018-05-01T06:20:06.197Z,48.21
2018-05-01T06:20:37.424Z,47.50
2018-05-01T06:21:08.712Z,47.26
2018-05-01T06:21:39.940Z,47.45
2018-05-01T06:22:11.237Z,47.52
2018-05-01T06:22:42.400Z,47.66
2018-05-01T06:23:13.616Z,48.25
2018-05-01T06:23:44.825Z,48.49
2018-05-01T06:24:16.085Z,48.40
2018-05-01T06:24:47.297Z,48.49
2018-05-01T06:25:18.508Z,48.55
2018-05-01T06:25:49.718Z,48.45
2018-05-01T06:26:20.935Z,48.21
2018-05-01T06:26:52.222Z,47.94
2018-05-01T06:27:23.432Z,47.82
2018-05-01T06:27:54.644Z,48.09
2018-05-01T06:28:25.856Z,48.04
2018-05-01T06:28:57.072Z,47.97
2018-05-01T06:29:28.282Z,47.93
2018-05-01T06:29:59.492Z,48.27
2018-05-01T06:30:30.703Z,48.24
2018-05-01T06:31:01.981Z,48.10
2018-05-01T06:31:33.165Z,48.07
2018-05-01T06:32:04.507Z,48.13
2018-05-01T06:32:35.720Z,48.05
2018-05-01T06:33:06.933Z,48.23
2018-05-01T06:33:38.189Z,48.58
2018-05-01T06:34:09.421Z,48.71
2018-05-01T06:34:40.675Z,49.11
2018-05-01T06:35:11.882Z,48.91
2018-05-01T06:35:43.095Z,48.46
2018-05-01T06:36:14.310Z,48.47
2018-05-01T06:36:45.524Z,48.79
2018-05-01T06:37:16.790Z,48.91
2018-05-01T06:37:48.020Z,48.86
2018-05-01T06:38:19.258Z,49.04
2018-05-01T06:38:50.475Z,48.58
2018-05-01T06:39:21.678Z,48.76
2018-05-01T06:39:52.885Z,48.73
2018-05-01T06:40:24.108Z,48.65
2018-05-01T06:40:55.315Z,48.67
2018-05-01T06:41:26.518Z,48.55
2018-05-01T06:41:57.726Z,48.94